Time;durP1;ratioP1;P1;durP2;ratioP2;P2;SDS_P1;SDS_P2;PMS_P1;PMS_P2;Temp;Humidity;BMP_temperature;BMP_pressure;BME280_temperature;BME280_humidity;BME280_pressure;Samples;Min_cycle;Max_cycle;Signal;HPM_P1;HPM_P2
2023/10/19 00:00:57;;;;;;;13.32;12.02;;;;;;;11.24;100.00;99158.91;5015994;28;20056;-75
2023/10/19 00:03:23;;;;;;;16.02;13.10;;;;;;;11.25;100.00;99157.13;5016988;28;20076;-75
2023/10/19 00:05:49;;;;;;;13.88;12.27;;;;;;;11.26;100.00;99153.53;5016722;28;20109;-75
2023/10/19 00:08:20;;;;;;;15.65;14.00;;;;;;;11.28;100.00;99152.50;5016733;28;20038;-75
2023/10/19 00:10:54;;;;;;;15.43;13.52;;;;;;;11.30;100.00;99149.78;5015896;28;20054;-75
2023/10/19 00:13:19;;;;;;;14.85;13.27;;;;;;;11.30;100.00;99150.59;5016906;28;20386;-76
2023/10/19 00:15:51;;;;;;;21.52;14.90;;;;;;;11.32;100.00;99150.50;5016268;28;20113;-76
2023/10/19 00:20:53;;;;;;;13.73;12.32;;;;;;;11.39;100.00;99156.13;5016300;28;20481;-75
2023/10/19 00:23:30;;;;;;;14.45;12.63;;;;;;;11.40;100.00;99142.09;5016575;28;20061;-75
2023/10/19 00:25:59;;;;;;;13.52;12.20;;;;;;;11.43;100.00;99152.38;5016673;28;20041;-76
2023/10/19 00:28:27;;;;;;;12.23;11.02;;;;;;;11.42;100.00;99156.75;5016237;28;20080;-75
2023/10/19 00:30:59;;;;;;;12.25;11.05;;;;;;;11.44;100.00;99160.13;5016627;28;20092;-75
2023/10/19 00:33:28;;;;;;;11.38;10.38;;;;;;;11.45;100.00;99161.78;5016443;28;20045;-75
2023/10/19 00:35:58;;;;;;;14.32;12.82;;;;;;;11.48;100.00;99150.25;5014798;28;20060;-75
2023/10/19 00:43:37;;;;;;;12.70;11.32;;;;;;;11.52;100.00;99155.16;5015728;28;20047;-75
2023/10/19 00:49:00;;;;;;;11.25;10.05;;;;;;;11.56;100.00;99145.28;4985069;28;20046;-75
2023/10/19 00:54:08;;;;;;;10.65;9.55;;;;;;;11.59;100.00;99145.06;5015887;28;20053;-75
2023/10/19 00:56:34;;;;;;;9.25;8.45;;;;;;;11.60;100.00;99140.66;5015177;28;20210;-75
2023/10/19 00:59:47;;;;;;;8.10;7.50;;;;;;;11.62;100.00;99142.22;5015991;28;20033;-75
2023/10/19 01:04:59;;;;;;;10.38;9.38;;;;;;;11.68;100.00;99149.66;4938397;28;20296;-75
2023/10/19 01:07:29;;;;;;;9.23;8.32;;;;;;;11.71;100.00;99145.97;4997363;28;20042;-75
2023/10/19 01:10:08;;;;;;;9.95;8.95;;;;;;;11.72;100.00;99143.22;4995747;28;20030;-75
2023/10/19 01:12:40;;;;;;;9.85;8.85;;;;;;;11.75;100.00;99155.31;4995416;28;20074;-75
2023/10/19 01:15:18;;;;;;;10.93;10.00;;;;;;;11.77;100.00;99142.91;4996224;28;20038;-75
2023/10/19 01:17:51;;;;;;;11.85;10.70;;;;;;;11.84;100.00;99153.78;4995605;28;20081;-75
2023/10/19 01:20:22;;;;;;;12.45;10.88;;;;;;;11.86;100.00;99144.88;4995823;28;20046;-75
2023/10/19 01:25:38;;;;;;;9.90;9.00;;;;;;;11.94;100.00;99148.75;5001041;28;20080;-75
2023/10/19 01:28:08;;;;;;;8.88;8.07;;;;;;;11.97;100.00;99141.50;5015233;28;20080;-75
2023/10/19 01:30:34;;;;;;;7.93;7.30;;;;;;;12.04;100.00;99147.09;5015332;28;20365;-75
2023/10/19 01:33:00;;;;;;;8.25;7.50;;;;;;;12.06;100.00;99140.81;5015152;28;20030;-75
2023/10/19 01:35:27;;;;;;;6.28;5.78;;;;;;;12.09;100.00;99150.22;5015437;28;20049;-75
2023/10/19 01:37:52;;;;;;;6.18;5.60;;;;;;;12.13;100.00;99141.16;5015522;28;20049;-75
2023/10/19 01:40:20;;;;;;;5.93;4.50;;;;;;;12.18;100.00;99136.41;5015279;28;20037;-75
2023/10/19 01:42:46;;;;;;;5.93;5.30;;;;;;;12.21;100.00;99138.00;5015314;28;20085;-75
2023/10/19 01:45:12;;;;;;;3.85;3.55;;;;;;;12.24;100.00;99128.13;5014950;28;20325;-75
2023/10/19 01:47:38;;;;;;;5.85;3.58;;;;;;;12.28;100.00;99136.59;5014624;28;20364;-75
2023/10/19 01:50:05;;;;;;;3.35;2.90;;;;;;;12.29;100.00;99140.88;5015547;28;20143;-75
2023/10/19 01:52:31;;;;;;;3.05;2.83;;;;;;;12.32;100.00;99138.03;5014606;28;20219;-75
2023/10/19 01:54:59;;;;;;;3.05;2.45;;;;;;;12.37;100.00;99137.66;5015163;28;20345;-75
2023/10/19 01:57:26;;;;;;;3.13;2.83;;;;;;;12.40;100.00;99134.81;5014828;28;20030;-75
2023/10/19 01:59:51;;;;;;;2.45;2.25;;;;;;;12.43;100.00;99138.06;5014781;28;20037;-75
2023/10/19 02:02:16;;;;;;;2.80;2.33;;;;;;;12.47;100.00;99139.47;5014759;28;20397;-75
2023/10/19 02:04:42;;;;;;;3.88;2.45;;;;;;;12.51;100.00;99136.63;5014617;28;20048;-75
2023/10/19 02:07:13;;;;;;;2.92;2.33;;;;;;;12.52;100.00;99135.69;5014904;28;20069;-75
2023/10/19 02:09:39;;;;;;;6.07;2.10;;;;;;;12.54;100.00;99136.41;5014463;28;20041;-75
2023/10/19 02:12:06;;;;;;;3.88;1.90;;;;;;;12.56;100.00;99124.00;5014615;28;20125;-75
2023/10/19 02:14:33;;;;;;;1.70;1.42;;;;;;;12.58;100.00;99124.72;5014204;28;20026;-75
2023/10/19 02:17:00;;;;;;;2.42;1.65;;;;;;;12.59;100.00;99121.16;5015094;28;20195;-75
2023/10/19 02:19:29;;;;;;;1.38;1.27;;;;;;;12.59;100.00;99126.41;5014647;28;20248;-76
2023/10/19 02:22:11;;;;;;;2.88;1.20;;;;;;;12.62;100.00;99123.53;5014676;28;20037;-76
2023/10/19 02:24:38;;;;;;;1.88;1.10;;;;;;;12.62;100.00;99124.34;5016533;28;20121;-76
2023/10/19 02:27:04;;;;;;;1.65;1.00;;;;;;;12.64;100.00;99121.59;5018650;28;20048;-76
2023/10/19 02:29:30;;;;;;;1.25;1.02;;;;;;;12.63;100.00;99118.16;5017995;28;20271;-75
2023/10/19 02:31:57;;;;;;;1.00;1.00;;;;;;;12.64;100.00;99114.59;5018955;28;20041;-76
2023/10/19 02:34:23;;;;;;;0.73;0.73;;;;;;;12.65;100.00;99110.16;5019041;28;20451;-76
2023/10/19 02:36:48;;;;;;;2.13;1.20;;;;;;;12.66;100.00;99115.31;5018377;28;20064;-76
2023/10/19 02:39:14;;;;;;;1.85;1.15;;;;;;;12.68;100.00;99115.19;5018438;28;20030;-75
2023/10/19 02:41:50;;;;;;;2.20;1.15;;;;;;;12.70;100.00;99113.28;5018158;28;20407;-75
2023/10/19 02:46:53;;;;;;;4.68;1.08;;;;;;;12.72;100.00;99114.00;5017801;28;20293;-75
2023/10/19 02:49:20;;;;;;;1.77;1.20;;;;;;;12.74;100.00;99108.63;5017976;28;20384;-75
2023/10/19 02:51:47;;;;;;;2.00;1.40;;;;;;;12.75;100.00;99110.28;5018095;28;20648;-75
2023/10/19 02:54:20;;;;;;;0.90;0.90;;;;;;;12.76;100.00;99109.34;5018328;28;20044;-75
2023/10/19 02:56:51;;;;;;;1.52;1.10;;;;;;;12.76;100.00;99111.97;5017703;28;20048;-75
2023/10/19 02:59:22;;;;;;;3.22;1.35;;;;;;;12.78;100.00;99108.25;5018078;28;20365;-75
2023/10/19 03:01:51;;;;;;;1.98;1.20;;;;;;;12.81;100.00;99113.28;5018204;28;20256;-75
2023/10/19 03:04:17;;;;;;;3.08;1.77;;;;;;;12.81;100.00;99110.66;5018377;28;20404;-75
2023/10/19 03:06:43;;;;;;;3.95;1.40;;;;;;;12.81;100.00;99109.81;5017643;28;20394;-75
2023/10/19 03:11:55;;;;;;;2.30;1.38;;;;;;;12.83;100.00;99105.28;5017786;28;20046;-75
2023/10/19 03:14:24;;;;;;;6.20;1.57;;;;;;;12.85;100.00;99103.38;5017809;28;20327;-75
2023/10/19 03:16:50;;;;;;;5.97;1.77;;;;;;;12.84;100.00;99105.16;5017502;28;20030;-75
2023/10/19 03:19:15;;;;;;;4.18;1.50;;;;;;;12.86;100.00;99107.66;5017461;28;20056;-75
2023/10/19 03:21:43;;;;;;;4.25;1.30;;;;;;;12.83;100.00;99094.78;5017430;28;20213;-75
2023/10/19 03:26:59;;;;;;;6.97;1.38;;;;;;;12.80;100.00;99087.13;5017493;28;20064;-75
2023/10/19 03:29:31;;;;;;;;;;;;;;;12.80;100.00;99089.75;5017948;28;20033;-75
2023/10/19 03:31:58;;;;;;;3.03;1.40;;;;;;;12.81;100.00;99088.81;5017412;28;19920;-75
2023/10/19 03:34:24;;;;;;;2.38;1.20;;;;;;;12.79;100.00;99091.56;5017487;28;20115;-75
2023/10/19 03:36:52;;;;;;;1.75;1.15;;;;;;;12.78;100.00;99089.88;5015961;28;20042;-75
2023/10/19 03:39:17;;;;;;;1.85;1.00;;;;;;;12.77;100.00;99096.09;5017314;28;20033;-75
2023/10/19 03:41:44;;;;;;;1.70;1.38;;;;;;;12.76;100.00;99089.16;5016992;28;20067;-75
2023/10/19 03:44:17;;;;;;;1.70;0.85;;;;;;;12.75;100.00;99098.00;5017405;28;20038;-75
2023/10/19 03:46:52;;;;;;;4.00;1.00;;;;;;;12.76;100.00;99090.94;5016820;28;20041;-75
2023/10/19 03:49:22;;;;;;;1.35;0.93;;;;;;;12.75;100.00;99087.50;5016901;28;20375;-75
2023/10/19 03:52:20;;;;;;;3.03;1.00;;;;;;;12.75;100.00;99090.13;5017125;28;20116;-75
2023/10/19 03:54:47;;;;;;;3.92;0.95;;;;;;;12.75;100.00;99084.00;5017056;28;20041;-75
2023/10/19 03:57:22;;;;;;;0.93;0.93;;;;;;;12.75;100.00;99084.88;5016641;28;20036;-74
2023/10/19 03:59:57;;;;;;;1.38;0.90;;;;;;;12.75;100.00;99095.38;5016917;28;20059;-75
2023/10/19 04:02:24;;;;;;;13.88;1.77;;;;;;;12.74;100.00;99091.06;5015288;28;20096;-75
2023/10/19 04:04:51;;;;;;;2.22;0.93;;;;;;;12.74;100.00;99092.88;5017201;28;20102;-75
2023/10/19 04:07:25;;;;;;;2.88;1.00;;;;;;;12.75;100.00;99094.53;5016738;28;20084;-74
2023/10/19 04:12:24;;;;;;;2.75;1.10;;;;;;;12.77;100.00;99092.59;5017054;28;20041;-75
2023/10/19 04:14:49;;;;;;;4.28;1.05;;;;;;;12.77;100.00;99103.97;5016819;28;20083;-74
2023/10/19 04:17:17;;;;;;;2.15;1.00;;;;;;;12.77;100.00;99096.09;5016687;28;20041;-75
2023/10/19 04:19:43;;;;;;;3.78;0.90;;;;;;;12.77;100.00;99100.50;5016573;28;20097;-74
2023/10/19 04:22:11;;;;;;;1.60;1.10;;;;;;;12.77;100.00;99096.09;5016618;28;20037;-75
2023/10/19 04:24:36;;;;;;;1.08;0.90;;;;;;;12.77;100.00;99103.97;5016517;28;20319;-74
2023/10/19 04:27:01;;;;;;;1.42;1.00;;;;;;;12.77;100.00;99097.84;5016767;28;20031;-75
2023/10/19 04:29:27;;;;;;;1.98;1.05;;;;;;;12.77;100.00;99096.09;5015970;28;20029;-74
2023/10/19 04:31:56;;;;;;;5.65;1.90;;;;;;;12.78;100.00;99096.91;5016495;28;20115;-75
2023/10/19 04:34:22;;;;;;;1.02;0.93;;;;;;;12.79;100.00;99095.97;5016198;28;20042;-75
2023/10/19 04:36:48;;;;;;;3.42;1.13;;;;;;;12.79;100.00;99099.44;5016126;28;20356;-75
2023/10/19 04:39:13;;;;;;;3.22;1.20;;;;;;;12.78;100.00;99096.91;5016389;28;20033;-74
2023/10/19 04:41:42;;;;;;;6.07;1.33;;;;;;;12.78;100.00;99094.28;5016264;28;20034;-74
2023/10/19 04:44:10;;;;;;;2.70;1.17;;;;;;;12.79;100.00;99101.22;5016415;28;20038;-74
2023/10/19 04:46:36;;;;;;;4.70;1.30;;;;;;;12.78;100.00;99095.13;5015557;28;20043;-75
2023/10/19 04:49:03;;;;;;;4.15;1.17;;;;;;;12.77;100.00;99103.97;5016297;28;20266;-75
2023/10/19 04:51:29;;;;;;;1.85;1.08;;;;;;;12.78;100.00;99107.44;5015807;28;20033;-75
2023/10/19 04:53:55;;;;;;;2.85;0.98;;;;;;;12.77;100.00;99101.34;5016084;28;20029;-74
2023/10/19 04:56:21;;;;;;;2.50;1.00;;;;;;;12.78;100.00;99108.25;5015522;28;20494;-75
2023/10/19 04:58:47;;;;;;;3.65;1.13;;;;;;;12.79;100.00;99112.56;5015568;28;20049;-75
2023/10/19 05:01:14;;;;;;;1.30;0.77;;;;;;;12.79;100.00;99107.31;5016035;28;20042;-75
2023/10/19 05:03:40;;;;;;;2.45;1.48;;;;;;;12.78;100.00;99107.44;5015183;28;20030;-75
2023/10/19 05:06:06;;;;;;;2.45;0.90;;;;;;;12.79;100.00;99107.31;5015916;28;20048;-75
2023/10/19 05:08:32;;;;;;;3.25;1.30;;;;;;;12.79;100.00;99111.75;5015256;28;20377;-74
2023/10/19 05:10:59;;;;;;;3.47;1.25;;;;;;;12.78;100.00;99110.88;5015796;28;20053;-74
2023/10/19 05:13:25;;;;;;;1.90;0.98;;;;;;;12.79;100.00;99109.94;5015341;28;20025;-74
2023/10/19 05:15:53;;;;;;;4.75;1.10;;;;;;;12.80;100.00;99108.13;5015416;28;20061;-74
2023/10/19 05:18:19;;;;;;;3.92;1.08;;;;;;;12.80;100.00;99110.78;5015394;28;20033;-74
2023/10/19 05:20:45;;;;;;;2.28;1.05;;;;;;;12.80;100.00;99116.03;5015310;28;20321;-74
2023/10/19 05:23:13;;;;;;;2.10;1.02;;;;;;;12.80;100.00;99119.47;5015851;28;20267;-74
2023/10/19 05:25:38;;;;;;;3.08;1.00;;;;;;;12.80;100.00;99113.41;5015251;28;20093;-74
2023/10/19 05:28:05;;;;;;;2.45;1.17;;;;;;;12.82;100.00;99114.97;5015732;28;20041;-74
2023/10/19 05:30:31;;;;;;;3.45;1.10;;;;;;;12.81;100.00;99112.44;5014991;28;20044;-74
2023/10/19 05:32:57;;;;;;;3.85;1.20;;;;;;;12.82;100.00;99109.72;5015579;28;20041;-74
2023/10/19 05:35:26;;;;;;;1.10;1.00;;;;;;;12.82;100.00;99109.72;5015503;28;20264;-74
2023/10/19 05:37:52;;;;;;;3.38;1.17;;;;;;;12.82;100.00;99109.72;5015610;28;20029;-74
2023/10/19 05:40:18;;;;;;;3.40;1.30;;;;;;;12.84;100.00;99110.44;5015333;28;20395;-74
2023/10/19 05:42:45;;;;;;;6.63;1.20;;;;;;;12.84;100.00;99120.94;5015063;28;20331;-74
2023/10/19 05:45:13;;;;;;;2.40;1.13;;;;;;;12.85;100.00;99106.81;5015390;28;20033;-74
2023/10/19 05:47:38;;;;;;;8.73;1.73;;;;;;;12.85;100.00;99106.00;5014731;28;20109;-74
2023/10/19 05:50:04;;;;;;;5.32;1.90;;;;;;;12.85;100.00;99103.38;5015222;28;20292;-75
2023/10/19 05:52:29;;;;;;;4.43;1.35;;;;;;;12.87;100.00;99104.09;5014678;28;20046;-74
2023/10/19 05:54:55;;;;;;;8.98;1.30;;;;;;;12.87;100.00;99111.97;5015163;28;20038;-74
2023/10/19 05:57:22;;;;;;;1.73;1.10;;;;;;;12.87;100.00;99104.91;5014744;28;20336;-74
2023/10/19 05:59:47;;;;;;;3.03;1.17;;;;;;;12.87;100.00;99107.53;5014023;28;20068;-74
2023/10/19 06:02:13;;;;;;;3.85;1.42;;;;;;;12.89;100.00;99106.59;5005079;28;20046;-74
2023/10/19 06:04:38;;;;;;;10.43;1.50;;;;;;;12.90;100.00;99116.13;4994988;28;20045;-74
2023/10/19 06:07:03;;;;;;;3.53;1.13;;;;;;;12.91;100.00;99121.28;4995433;28;20048;-74
2023/10/19 06:09:29;;;;;;;4.93;1.35;;;;;;;12.90;100.00;99122.25;4994862;28;20038;-74
2023/10/19 06:11:55;;;;;;;4.53;1.17;;;;;;;12.90;100.00;99121.38;4994908;28;20050;-74
2023/10/19 06:14:20;;;;;;;6.20;0.98;;;;;;;12.91;100.00;99126.53;4995082;28;20042;-74
2023/10/19 06:16:46;;;;;;;1.58;0.93;;;;;;;12.94;100.00;99136.81;4994507;28;20116;-74
2023/10/19 06:19:11;;;;;;;3.92;1.40;;;;;;;12.93;100.00;99136.91;4994881;28;20225;-74
2023/10/19 06:21:36;;;;;;;2.00;1.30;;;;;;;12.95;100.00;99137.63;4993092;28;20284;-74
2023/10/19 06:24:02;;;;;;;2.97;1.25;;;;;;;12.95;100.00;99132.38;4995098;28;20238;-74
2023/10/19 06:26:28;;;;;;;1.77;1.10;;;;;;;12.96;100.00;99131.44;5007674;28;20352;-74
2023/10/19 06:28:58;;;;;;;6.88;1.65;;;;;;;12.96;100.00;99129.63;5014927;28;20038;-74
2023/10/19 06:31:24;;;;;;;3.25;1.08;;;;;;;12.98;100.00;99137.41;5014520;28;20260;-74
2023/10/19 06:33:49;;;;;;;2.22;1.00;;;;;;;12.97;100.00;99139.22;5014441;28;20041;-74
2023/10/19 06:36:14;;;;;;;1.65;0.98;;;;;;;12.98;100.00;99143.50;5014297;28;20064;-74
2023/10/19 06:38:40;;;;;;;3.45;1.00;;;;;;;13.00;100.00;99140.75;5014454;28;20230;-74
2023/10/19 06:41:12;;;;;;;2.58;1.40;;;;;;;13.01;100.00;99147.69;5014565;28;20213;-74
2023/10/19 06:43:39;;;;;;;2.67;1.15;;;;;;;13.00;100.00;99146.84;5013703;28;20206;-74
2023/10/19 06:46:05;;;;;;;5.97;1.80;;;;;;;13.01;100.00;99151.16;4994344;28;20250;-74
2023/10/19 06:48:31;;;;;;;3.22;1.30;;;;;;;13.03;100.00;99151.03;4994403;28;20034;-74
2023/10/19 06:50:56;;;;;;;5.43;1.67;;;;;;;13.03;100.00;99157.13;4994855;28;20550;-74
2023/10/19 06:53:22;;;;;;;1.48;1.10;;;;;;;13.04;100.00;99150.91;5012619;28;20092;-74
2023/10/19 06:55:47;;;;;;;4.70;1.33;;;;;;;13.05;100.00;99143.84;5011768;28;20042;-76
2023/10/19 06:58:14;;;;;;;6.80;1.42;;;;;;;13.05;100.00;99144.69;5012006;28;20108;-73
2023/10/19 07:00:43;;;;;;;6.00;1.48;;;;;;;13.07;100.00;99149.81;5012407;28;20381;-75
2023/10/19 07:03:08;;;;;;;6.97;1.50;;;;;;;13.06;100.00;99154.25;5012388;28;20092;-75
2023/10/19 07:05:34;;;;;;;2.70;1.30;;;;;;;13.09;100.00;99163.69;5011683;28;20033;-73
2023/10/19 07:08:01;;;;;;;7.18;1.60;;;;;;;13.10;100.00;99154.00;5012131;28;20088;-73
2023/10/19 07:10:27;;;;;;;5.70;1.58;;;;;;;13.12;100.00;99160.81;5013073;28;20065;-73
2023/10/19 07:12:54;;;;;;;6.07;1.33;;;;;;;13.11;100.00;99155.69;5015198;28;20345;-73
2023/10/19 07:15:22;;;;;;;6.22;1.38;;;;;;;13.13;100.00;99161.66;5015918;28;20041;-73
2023/10/19 07:17:48;;;;;;;1.83;1.05;;;;;;;13.14;100.00;99165.97;5015522;28;20111;-73
2023/10/19 07:20:36;;;;;;;5.18;1.35;;;;;;;13.14;100.00;99158.91;5015706;28;20121;-73
2023/10/19 07:23:09;;;;;;;3.55;1.20;;;;;;;13.16;100.00;99161.41;5016978;28;20168;-73
2023/10/19 07:25:42;;;;;;;2.85;1.20;;;;;;;13.17;100.00;99150.78;5016206;28;20059;-73
2023/10/19 07:28:12;;;;;;;1.70;1.05;;;;;;;13.18;100.00;99160.34;5016792;28;20065;-73
2023/10/19 07:30:38;;;;;;;2.65;1.25;;;;;;;13.19;100.00;99156.75;5016561;28;20050;-73
2023/10/19 07:33:05;;;;;;;3.25;1.33;;;;;;;13.20;100.00;99150.53;5016981;28;20046;-73
2023/10/19 07:35:34;;;;;;;4.95;1.38;;;;;;;13.23;100.00;99155.56;5016046;28;20045;-73
2023/10/19 07:38:01;;;;;;;2.60;1.05;;;;;;;13.25;100.00;99158.06;5015831;28;20038;-76
2023/10/19 07:40:27;;;;;;;2.67;1.05;;;;;;;13.25;100.00;99160.69;5016129;28;20053;-73
2023/10/19 07:42:54;;;;;;;5.93;1.90;;;;;;;13.27;100.00;99169.31;5016301;28;20396;-73
2023/10/19 07:45:19;;;;;;;3.50;1.27;;;;;;;13.29;100.00;99171.81;5016537;28;20263;-73
2023/10/19 07:47:45;;;;;;;1.98;1.20;;;;;;;13.29;100.00;99171.81;5009730;28;20066;-73
2023/10/19 07:50:17;;;;;;;2.05;1.23;;;;;;;13.31;100.00;99178.63;5007299;28;20351;-73
2023/10/19 07:52:49;;;;;;;3.00;1.77;;;;;;;13.32;100.00;99180.31;5014799;28;20407;-73
2023/10/19 07:55:16;;;;;;;2.35;1.58;;;;;;;13.33;100.00;99174.09;5014979;28;20068;-73
2023/10/19 07:57:42;;;;;;;2.67;1.20;;;;;;;13.34;100.00;99174.94;5012563;28;20034;-73
2023/10/19 08:00:09;;;;;;;5.43;1.58;;;;;;;13.35;100.00;99174.84;5014863;28;20141;-73
2023/10/19 08:02:35;;;;;;;1.85;1.20;;;;;;;13.37;100.00;99164.16;5014085;28;20022;-73
2023/10/19 08:05:02;;;;;;;2.38;1.50;;;;;;;13.38;100.00;99161.44;5015697;28;20068;-73
2023/10/19 08:07:28;;;;;;;2.03;1.30;;;;;;;13.40;100.00;99163.94;5014649;28;20041;-74
2023/10/19 08:09:54;;;;;;;2.88;1.35;;;;;;;13.41;100.00;99165.63;5014499;28;20097;-74
2023/10/19 08:12:22;;;;;;;4.10;1.75;;;;;;;13.42;100.00;99159.41;5015092;28;20034;-74
2023/10/19 08:14:48;;;;;;;2.13;1.48;;;;;;;13.43;100.00;99161.06;5014237;28;20034;-74
2023/10/19 08:17:14;;;;;;;1.30;1.10;;;;;;;13.46;100.00;99163.44;5015571;28;20037;-74
2023/10/19 08:19:39;;;;;;;2.03;1.63;;;;;;;13.47;100.00;99153.78;5013255;28;20018;-74
2023/10/19 08:22:05;;;;;;;2.90;1.30;;;;;;;13.49;100.00;99151.88;5003328;28;20029;-74
2023/10/19 08:24:34;;;;;;;6.55;2.20;;;;;;;13.49;100.00;99150.06;5011866;28;20034;-74
2023/10/19 08:27:00;;;;;;;5.05;2.00;;;;;;;13.50;100.00;99148.25;5013825;28;20060;-74
2023/10/19 08:29:26;;;;;;;4.25;1.70;;;;;;;13.52;100.00;99149.81;5009028;28;20037;-74
2023/10/19 08:31:51;;;;;;;6.88;2.58;;;;;;;13.54;100.00;99153.16;5015179;28;20037;-74
2023/10/19 08:34:17;;;;;;;3.15;1.58;;;;;;;13.57;100.00;99160.81;5014931;28;20034;-74
2023/10/19 08:36:43;;;;;;;3.30;1.80;;;;;;;13.60;100.00;99157.91;5014442;28;20091;-73
2023/10/19 08:39:11;;;;;;;7.43;2.50;;;;;;;13.62;100.00;99142.88;5008614;28;20380;-73
2023/10/19 08:41:39;;;;;;;6.53;1.95;;;;;;;13.68;100.00;99145.94;5014267;28;20038;-73
2023/10/19 08:44:13;;;;;;;4.72;1.73;;;;;;;13.71;100.00;99149.16;5009518;28;20042;-73
2023/10/19 08:46:47;;;;;;;7.20;1.90;;;;;;;13.76;100.00;99152.28;5014806;28;20042;-73
2023/10/19 08:49:13;;;;;;;9.60;2.50;;;;;;;13.80;100.00;99153.69;5003878;28;20079;-73
2023/10/19 08:51:39;;;;;;;9.93;2.08;;;;;;;13.87;100.00;99150.59;5013923;28;20543;-73
2023/10/19 08:54:06;;;;;;;8.93;2.10;;;;;;;13.89;100.00;99146.84;5008783;28;20242;-73
2023/10/19 08:56:33;;;;;;;5.03;2.05;;;;;;;13.93;100.00;99153.53;5013123;28;20041;-73
2023/10/19 08:59:01;;;;;;;4.03;1.80;;;;;;;13.95;100.00;99159.53;5009741;28;20097;-73
2023/10/19 09:01:28;;;;;;;14.27;3.30;;;;;;;14.00;100.00;99156.50;5014524;28;20116;-73
2023/10/19 09:03:57;;;;;;;12.45;3.10;;;;;;;14.02;100.00;99150.16;5009707;28;20079;-73
2023/10/19 09:06:22;;;;;;;11.65;3.10;;;;;;;14.05;100.00;99141.19;5014427;28;20296;-73
2023/10/19 09:08:48;;;;;;;8.02;2.55;;;;;;;14.08;100.00;99145.34;5007368;28;20049;-73
2023/10/19 09:11:14;;;;;;;9.85;2.60;;;;;;;14.09;100.00;99142.59;5004302;28;20057;-73
2023/10/19 09:13:51;;;;;;;5.75;2.28;;;;;;;14.11;100.00;99145.09;5007430;28;20360;-73
2023/10/19 09:16:19;;;;;;;7.65;2.42;;;;;;;14.12;100.00;99138.88;5014464;28;20030;-73
2023/10/19 09:18:45;;;;;;;6.07;2.00;;;;;;;14.12;100.00;99131.00;5009210;28;20030;-73
2023/10/19 09:21:23;;;;;;;8.63;2.70;;;;;;;14.16;100.00;99124.50;5014416;28;20067;-73
2023/10/19 09:23:49;;;;;;;5.93;2.50;;;;;;;14.19;100.00;99125.09;5013257;28;20065;-73
2023/10/19 09:26:15;;;;;;;10.48;2.78;;;;;;;14.23;100.00;99125.66;5013732;28;20309;-73
2023/10/19 09:28:41;;;;;;;6.68;2.25;;;;;;;14.26;100.00;99124.56;5013180;28;20503;-73
2023/10/19 09:31:09;;;;;;;11.20;3.17;;;;;;;14.29;100.00;99124.31;5013252;28;20042;-73
2023/10/19 09:33:35;;;;;;;11.52;3.17;;;;;;;14.32;100.00;99122.25;5011054;28;20049;-73
2023/10/19 09:36:04;;;;;;;29.15;13.98;;;;;;;14.34;100.00;99119.50;5014289;28;20030;-73
2023/10/19 09:38:29;;;;;;;;;;;;;;;14.37;100.00;99113.97;5013334;28;20042;-73
2023/10/19 09:40:56;;;;;;;16.20;5.75;;;;;;;14.39;100.00;99112.88;5014011;28;20236;-73
2023/10/19 09:43:26;;;;;;;14.10;5.35;;;;;;;14.39;100.00;99114.69;5006737;28;20033;-73
2023/10/19 09:45:53;;;;;;;7.93;4.25;;;;;;;14.40;100.00;99103.19;5014419;28;20037;-73
2023/10/19 09:48:20;;;;;;;10.38;3.67;;;;;;;14.41;100.00;99112.75;5013727;28;20045;-73
2023/10/19 09:50:54;;;;;;;15.07;3.70;;;;;;;14.45;100.00;99105.44;5014007;28;20379;-73
2023/10/19 09:53:23;;;;;;;15.13;3.95;;;;;;;14.46;100.00;99112.34;5012511;28;20030;-73
2023/10/19 09:55:51;;;;;;;6.78;2.78;;;;;;;14.47;100.00;99122.75;5010632;28;20178;-73
2023/10/19 09:58:19;;;;;;;8.13;2.95;;;;;;;14.49;100.00;99120.00;5013815;28;20312;-73
2023/10/19 10:00:45;;;;;;;6.43;2.50;;;;;;;14.51;100.00;99115.44;5014301;28;20128;-73
2023/10/19 10:03:51;;;;;;;13.93;4.15;;;;;;;14.54;100.00;99107.28;5013922;28;20320;-73
2023/10/19 10:06:27;;;;;;;11.07;2.90;;;;;;;14.57;100.00;99109.66;5013592;28;20022;-73
2023/10/19 10:08:52;;;;;;;17.27;3.45;;;;;;;14.61;100.00;99116.38;5014140;28;20041;-73
2023/10/19 10:11:26;;;;;;;13.32;3.92;;;;;;;14.65;100.00;99120.41;5013648;28;20370;-73
2023/10/19 10:13:53;;;;;;;9.25;2.85;;;;;;;14.68;100.00;99103.50;5014264;28;20064;-73
2023/10/19 10:16:24;;;;;;;10.07;2.72;;;;;;;14.70;100.00;99099.78;5013540;28;20367;-73
2023/10/19 10:18:50;;;;;;;5.50;2.85;;;;;;;14.73;100.00;99107.41;5013722;28;20041;-73
2023/10/19 10:21:24;;;;;;;6.28;2.50;;;;;;;14.81;100.00;99093.59;5013848;28;20042;-73
2023/10/19 10:23:59;;;;;;;12.18;3.05;;;;;;;14.84;100.00;99095.94;5013668;28;20040;-73
2023/10/19 10:26:29;;;;;;;8.23;2.75;;;;;;;14.91;100.00;99109.44;5013230;28;20042;-73
2023/10/19 10:29:14;;;;;;;6.65;3.00;;;;;;;14.96;100.00;99107.25;5011335;28;20225;-73
2023/10/19 10:31:47;;;;;;;10.35;3.35;;;;;;;15.01;100.00;99104.19;5011787;28;20260;-73
2023/10/19 10:34:37;;;;;;;13.98;3.15;;;;;;;15.05;100.00;99106.44;5013292;28;20093;-73
2023/10/19 10:37:07;;;;;;;10.13;2.95;;;;;;;15.07;100.00;99111.59;5013475;28;20048;-73
2023/10/19 10:39:35;;;;;;;8.90;2.72;;;;;;;15.09;100.00;99109.66;5013286;28;20030;-73
2023/10/19 10:42:04;;;;;;;6.03;2.63;;;;;;;15.09;100.00;99107.84;5013654;28;20344;-73
2023/10/19 10:44:37;;;;;;;8.50;2.95;;;;;;;15.08;100.00;99100.06;5013161;28;20030;-73
2023/10/19 10:47:03;;;;;;;10.52;2.85;;;;;;;15.07;100.00;99111.59;5017514;28;20100;-73
2023/10/19 10:49:28;;;;;;;6.03;2.22;;;;;;;15.06;100.00;99110.75;5017016;28;20068;-73
2023/10/19 10:51:54;;;;;;;6.35;2.35;;;;;;;15.05;100.00;99102.97;5017659;28;20337;-73
2023/10/19 10:54:21;;;;;;;6.93;2.40;;;;;;;15.05;100.00;99106.44;5017197;28;20091;-73
2023/10/19 10:56:47;;;;;;;12.57;2.70;;;;;;;15.10;100.00;99106.06;5017398;28;20054;-73
2023/10/19 10:59:13;;;;;;;8.93;2.47;;;;;;;15.15;100.00;99106.47;5016987;28;20068;-73
2023/10/19 11:01:38;;;;;;;8.60;2.10;;;;;;;15.20;100.00;99112.19;5016979;28;20079;-73
2023/10/19 11:04:08;;;;;;;12.95;3.08;;;;;;;15.25;100.00;99106.50;5017327;28;20268;-73
2023/10/19 11:06:49;;;;;;;9.50;2.38;;;;;;;15.27;100.00;99099.31;5016622;28;20101;-73
2023/10/19 11:09:18;;;;;;;11.63;2.42;;;;;;;15.28;100.00;99106.22;5016720;28;20025;-73
2023/10/19 11:11:44;;;;;;;11.80;2.72;;;;;;;15.29;100.00;99095.53;5016671;28;20046;-73
2023/10/19 11:14:13;;;;;;;7.25;2.15;;;;;;;15.31;100.00;99096.25;5017052;28;20037;-73
2023/10/19 11:16:39;;;;;;;;;;;;;;;15.30;100.00;99091.94;5017558;28;20080;-73
2023/10/19 11:19:05;;;;;;;11.40;2.90;;;;;;;15.29;100.00;99087.63;5016887;28;20113;-73
2023/10/19 11:21:30;;;;;;;6.15;2.60;;;;;;;15.30;100.00;99085.84;5017063;28;20037;-73
2023/10/19 11:23:56;;;;;;;4.55;2.28;;;;;;;15.29;100.00;99076.25;5016860;28;20391;-73
2023/10/19 11:26:27;;;;;;;8.05;2.20;;;;;;;15.30;100.00;99070.03;5008534;28;20486;-73
2023/10/19 11:29:09;;;;;;;8.65;2.40;;;;;;;15.30;100.00;99067.41;5017123;28;20033;-73
2023/10/19 11:31:38;;;;;;;12.80;2.25;;;;;;;15.31;100.00;99063.78;5014977;28;20022;-73
2023/10/19 11:34:03;;;;;;;;;;;;;;;15.31;100.00;99064.59;5011584;28;20045;-73
2023/10/19 11:36:29;;;;;;;8.73;1.80;;;;;;;15.33;100.00;99065.31;5016093;28;19905;-73
2023/10/19 11:38:55;;;;;;;10.30;2.30;;;;;;;15.35;100.00;99070.44;5016418;28;20093;-73
2023/10/19 11:41:21;;;;;;;7.30;2.00;;;;;;;15.36;100.00;99067.66;5009147;28;20062;-73
2023/10/19 11:43:48;;;;;;;5.32;1.63;;;;;;;15.39;100.00;99066.56;5012217;28;20037;-73
2023/10/19 11:46:25;;;;;;;16.25;2.30;;;;;;;15.40;100.00;99055.03;5014931;28;20049;-73
2023/10/19 11:48:50;;;;;;;9.35;2.20;;;;;;;15.45;100.00;99055.47;5015306;28;20351;-72
2023/10/19 11:51:16;;;;;;;7.00;2.10;;;;;;;15.45;100.00;99050.19;5015248;28;20030;-73
2023/10/19 11:53:42;;;;;;;7.45;2.10;;;;;;;15.46;100.00;99049.22;5015616;28;20036;-72
2023/10/19 11:56:12;;;;;;;6.63;1.92;;;;;;;15.46;100.00;99035.19;5014860;28;20413;-73
2023/10/19 11:58:39;;;;;;;6.05;2.08;;;;;;;15.45;100.00;99038.81;5008421;28;20398;-73